Time;durP1;ratioP1;P1;durP2;ratioP2;P2;SDS_P1;SDS_P2;PMS_P1;PMS_P2;Temp;Humidity;BMP_temperature;BMP_pressure;BME280_temperature;BME280_humidity;BME280_pressure;Samples;Min_cycle;Max_cycle;Signal;HPM_P1;HPM_P2
2021/12/11 00:01:42;;;;;;;34.50;19.62;;;;;;;7.29;100.00;99915.97;1696202;83;21175;-77
2021/12/11 00:04:14;;;;;;;37.48;24.55;;;;;;;7.30;100.00;99905.47;1689644;83;21084;-75
2021/12/11 00:06:48;;;;;;;40.38;21.87;;;;;;;7.31;100.00;99904.55;1691982;83;21188;-76
2021/12/11 00:09:20;;;;;;;34.58;21.75;;;;;;;7.32;100.00;99914.15;1695341;84;21132;-77
2021/12/11 00:11:52;;;;;;;33.65;20.00;;;;;;;7.32;100.00;99924.63;1703880;83;21109;-77
2021/12/11 00:14:20;;;;;;;31.80;19.27;;;;;;;7.34;100.00;99906.26;1710231;82;21052;-78
2021/12/11 00:16:47;;;;;;;27.90;17.30;;;;;;;7.35;100.00;99914.05;1710872;82;21104;-76
2021/12/11 00:19:18;;;;;;;27.58;17.60;;;;;;;7.34;100.00;99912.34;1725618;82;21123;-78
2021/12/11 00:21:45;;;;;;;32.03;19.32;;;;;;;7.37;100.00;99923.65;1725312;82;21082;-76
2021/12/11 00:24:19;;;;;;;29.90;17.07;;;;;;;7.37;100.00;99915.79;1725377;83;21065;-79
2021/12/11 00:26:50;;;;;;;28.45;16.17;;;;;;;7.39;100.00;99909.61;1725218;83;21101;-76
2021/12/11 00:29:21;;;;;;;32.25;19.55;;;;;;;7.39;100.00;99902.20;1723241;82;21603;-77
2021/12/11 00:31:51;;;;;;;33.85;17.65;;;;;;;7.39;100.00;99908.75;1715900;83;21054;-76
2021/12/11 00:34:19;;;;;;;31.35;19.00;;;;;;;7.37;100.00;99923.19;1715778;83;21103;-75
2021/12/11 00:37:00;;;;;;;32.20;17.52;;;;;;;7.38;100.00;99917.03;1715836;83;21045;-77
2021/12/11 00:39:26;;;;;;;29.52;16.73;;;;;;;7.39;100.00;99911.38;1715969;83;21111;-77
2021/12/11 00:41:55;;;;;;;24.60;15.72;;;;;;;7.41;100.00;99909.54;1716016;83;21526;-77
2021/12/11 00:44:37;;;;;;;31.27;17.02;;;;;;;7.41;100.00;99906.49;1715686;83;21882;-79
2021/12/11 00:47:21;;;;;;;35.75;16.75;;;;;;;7.41;100.00;99930.50;1715901;83;21053;-77
2021/12/11 00:50:05;;;;;;;30.12;15.58;;;;;;;7.42;100.00;99925.69;1716389;83;21159;-79
2021/12/11 00:52:46;;;;;;;29.42;15.83;;;;;;;7.42;100.00;99914.75;1716099;83;21049;-77
2021/12/11 00:55:30;;;;;;;28.67;18.05;;;;;;;7.45;100.00;99913.80;1716676;83;21073;-77
2021/12/11 00:58:09;;;;;;;31.17;17.20;;;;;;;7.43;100.00;99907.31;1697021;84;21122;-78
2021/12/11 01:00:44;;;;;;;26.10;16.07;;;;;;;7.45;100.00;99915.11;1703814;83;21065;-78
2021/12/11 01:03:14;;;;;;;27.05;15.10;;;;;;;7.47;100.00;99917.23;1725845;82;21045;-79
2021/12/11 01:05:42;;;;;;;30.97;15.55;;;;;;;7.50;100.00;99925.00;1707807;83;20998;-78
2021/12/11 01:08:24;;;;;;;27.27;15.90;;;;;;;7.49;100.00;99920.69;1725384;82;21580;-76
2021/12/11 01:10:56;;;;;;;28.27;16.10;;;;;;;7.49;100.00;99912.82;1723930;81;21165;-76
2021/12/11 01:13:26;;;;;;;31.95;15.05;;;;;;;7.49;100.00;99911.52;1690460;84;21078;-74
2021/12/11 01:15:58;;;;;;;24.32;12.98;;;;;;;7.47;100.00;99912.00;1705269;83;21060;-76
2021/12/11 01:18:34;;;;;;;26.93;15.28;;;;;;;7.47;100.00;99915.47;1723927;83;21119;-76
2021/12/11 01:21:27;;;;;;;26.00;15.63;;;;;;;7.47;100.00;99918.55;1722361;83;21091;-76
2021/12/11 01:23:56;;;;;;;26.60;15.63;;;;;;;7.48;100.00;99913.73;1720088;83;21104;-77
2021/12/11 01:26:20;;;;;;;27.98;14.63;;;;;;;7.46;100.00;99908.53;1720902;82;21040;-75
2021/12/11 01:28:48;;;;;;;28.70;15.35;;;;;;;7.45;100.00;99919.05;1723041;83;21076;-77
2021/12/11 01:31:16;;;;;;;24.60;15.83;;;;;;;7.45;100.00;99911.18;1722726;83;21067;-77
2021/12/11 01:33:43;;;;;;;26.05;15.00;;;;;;;7.44;100.00;99912.09;1723060;83;21080;-75
2021/12/11 01:36:09;;;;;;;28.27;15.18;;;;;;;7.44;100.00;99914.72;1722946;83;21139;-77
2021/12/11 01:38:37;;;;;;;29.35;15.63;;;;;;;7.48;100.00;99908.50;1722502;83;21519;-77
2021/12/11 01:41:08;;;;;;;23.73;14.28;;;;;;;7.49;100.00;99907.58;1722634;83;21083;-76
2021/12/11 01:43:37;;;;;;;22.13;13.85;;;;;;;7.49;100.00;99904.50;1722732;81;21518;-77
2021/12/11 01:46:04;;;;;;;23.02;14.55;;;;;;;7.49;100.00;99915.44;1723267;82;21011;-75
2021/12/11 01:48:40;;;;;;;26.02;14.90;;;;;;;7.48;100.00;99908.50;1737876;82;21159;-74
2021/12/11 01:51:24;;;;;;;21.90;14.07;;;;;;;7.46;100.00;99909.84;1741769;82;21080;-75
2021/12/11 01:53:56;;;;;;;24.47;14.30;;;;;;;7.45;100.00;99918.58;1742138;82;21076;-78
2021/12/11 01:56:26;;;;;;;25.15;15.50;;;;;;;7.44;100.00;99909.48;1729904;82;21067;-76
2021/12/11 01:59:07;;;;;;;29.35;16.32;;;;;;;7.42;100.00;99916.52;1719768;83;21562;-76
2021/12/11 02:01:52;;;;;;;26.55;15.85;;;;;;;7.39;100.00;99911.38;1719783;83;21147;-76
2021/12/11 02:04:20;;;;;;;25.45;16.60;;;;;;;7.34;100.00;99918.89;1719755;83;21114;-75
2021/12/11 02:06:49;;;;;;;33.48;18.37;;;;;;;7.35;100.00;99919.30;1720074;83;22212;-77
2021/12/11 02:09:29;;;;;;;31.65;19.73;;;;;;;7.32;100.00;99914.15;1719885;83;21315;-76
2021/12/11 02:12:29;;;;;;;29.57;19.80;;;;;;;7.31;100.00;99911.56;1720270;82;21486;-77
2021/12/11 02:14:54;;;;;;;28.20;17.55;;;;;;;7.29;100.00;99911.63;1719853;82;21805;-78
2021/12/11 02:17:36;;;;;;;31.50;20.32;;;;;;;7.26;100.00;99909.06;1720120;83;21014;-78
2021/12/11 02:20:08;;;;;;;33.00;19.85;;;;;;;7.24;100.00;99914.79;1720144;82;21050;-77
2021/12/11 02:22:39;;;;;;;34.70;19.92;;;;;;;7.24;100.00;99905.62;1719872;83;21077;-77
2021/12/11 02:25:12;;;;;;;;;;;;;;;7.22;100.00;99900.88;1722971;83;21019;-75
2021/12/11 02:27:50;;;;;;;32.00;17.02;;;;;;;7.21;100.00;99905.72;1720157;82;21553;-77
2021/12/11 02:30:23;;;;;;;26.45;16.82;;;;;;;7.20;100.00;99909.67;1719364;83;21104;-77
2021/12/11 02:32:58;;;;;;;26.77;17.12;;;;;;;7.19;100.00;99921.06;1719954;83;21072;-74
2021/12/11 02:35:33;;;;;;;29.85;17.67;;;;;;;7.18;100.00;99915.40;1719552;82;21116;-73
2021/12/11 02:38:14;;;;;;;28.05;15.98;;;;;;;7.16;100.00;99923.32;1720109;83;21057;-74
2021/12/11 02:40:49;;;;;;;29.98;17.90;;;;;;;7.16;100.00;99916.77;1720056;83;21148;-74
2021/12/11 02:43:33;;;;;;;29.63;18.60;;;;;;;7.14;100.00;99914.64;1719822;82;21513;-73
2021/12/11 02:46:08;;;;;;;29.20;18.90;;;;;;;7.13;100.00;99920.76;1720145;83;21081;-74
2021/12/11 02:48:49;;;;;;;31.33;17.82;;;;;;;7.15;100.00;99935.98;1720077;83;21603;-72
2021/12/11 02:51:33;;;;;;;30.05;18.07;;;;;;;7.13;100.00;99927.30;1720388;83;21038;-73
2021/12/11 02:54:10;;;;;;;29.27;18.12;;;;;;;7.10;100.00;99937.88;1720242;83;21083;-75
2021/12/11 02:56:45;;;;;;;23.52;16.07;;;;;;;7.10;100.00;99928.70;1717026;82;21494;-73
2021/12/11 02:59:16;;;;;;;27.02;17.65;;;;;;;7.08;100.00;99933.13;1720241;82;21110;-76
2021/12/11 03:01:51;;;;;;;31.57;17.67;;;;;;;7.08;100.00;99935.73;1716230;83;21087;-77
2021/12/11 03:04:28;;;;;;;30.80;18.48;;;;;;;7.08;100.00;99933.13;1684765;85;21087;-77
2021/12/11 03:06:54;;;;;;;29.70;18.00;;;;;;;7.10;100.00;99932.63;1684689;85;21822;-75
2021/12/11 03:09:25;;;;;;;29.63;18.50;;;;;;;7.07;100.00;99924.41;1685385;85;21054;-77
2021/12/11 03:11:54;;;;;;;22.42;14.50;;;;;;;7.07;100.00;99934.03;1685322;85;21594;-76
2021/12/11 03:14:22;;;;;;;28.70;17.42;;;;;;;7.09;100.00;99927.00;1685597;85;21032;-75
2021/12/11 03:16:50;;;;;;;30.20;17.67;;;;;;;7.09;100.00;99941.41;1698794;83;21921;-74
2021/12/11 03:19:21;;;;;;;28.45;17.62;;;;;;;7.08;100.00;99930.50;1713770;83;21142;-79
2021/12/11 03:21:48;;;;;;;;;;;;;;;7.07;100.00;99915.70;1714799;83;21635;-77
2021/12/11 03:24:15;;;;;;;25.08;16.70;;;;;;;7.07;100.00;99923.56;1712843;83;20209;-75
2021/12/11 03:26:43;;;;;;;24.90;16.25;;;;;;;7.07;100.00;99926.17;1712674;83;21018;-76
2021/12/11 03:29:10;;;;;;;30.75;16.40;;;;;;;7.07;100.00;99936.20;1712879;82;21050;-74
2021/12/11 03:31:38;;;;;;;25.72;15.63;;;;;;;7.06;100.00;99929.67;1712317;83;21093;-74
2021/12/11 03:34:08;;;;;;;23.32;15.13;;;;;;;7.05;100.00;99927.97;1712515;83;21525;-75
2021/12/11 03:36:35;;;;;;;28.27;17.02;;;;;;;7.07;100.00;99934.03;1712440;83;21580;-78
2021/12/11 03:39:07;;;;;;;23.80;15.05;;;;;;;7.06;100.00;99932.30;1712223;83;21081;-76
2021/12/11 03:41:34;;;;;;;24.07;15.32;;;;;;;7.05;100.00;99938.45;1712236;82;21305;-75
2021/12/11 03:44:00;;;;;;;27.22;15.65;;;;;;;7.06;100.00;99930.98;1712694;83;21738;-76
2021/12/11 03:46:26;;;;;;;28.45;17.87;;;;;;;7.04;100.00;99926.23;1712351;83;21073;-77
2021/12/11 03:48:57;;;;;;;29.35;17.07;;;;;;;7.02;100.00;99920.20;1716077;82;21059;-77
2021/12/11 03:51:30;;;;;;;31.87;16.97;;;;;;;7.02;100.00;99930.68;1712976;83;21029;-77
2021/12/11 03:53:58;;;;;;;29.80;17.57;;;;;;;7.02;100.00;99926.75;1712463;83;21075;-78
2021/12/11 03:56:25;;;;;;;28.05;16.55;;;;;;;7.04;100.00;99935.40;1712623;83;21123;-77
2021/12/11 03:58:52;;;;;;;26.05;15.63;;;;;;;7.01;100.00;99932.87;1712431;83;21479;-75
2021/12/11 04:01:34;;;;;;;29.45;17.10;;;;;;;7.03;100.00;99924.53;1712521;83;21047;-77
2021/12/11 04:04:06;;;;;;;27.27;15.80;;;;;;;7.04;100.00;99921.00;1712589;83;21653;-76
2021/12/11 04:06:33;;;;;;;28.05;15.93;;;;;;;7.02;100.00;99925.45;1712879;82;21083;-78
2021/12/11 04:09:00;;;;;;;28.20;17.73;;;;;;;6.99;100.00;99935.97;1712539;83;21177;-79
2021/12/11 04:11:30;;;;;;;26.37;16.80;;;;;;;7.00;100.00;99940.33;1712406;82;21055;-78
2021/12/11 04:14:01;;;;;;;27.32;17.98;;;;;;;6.99;100.00;99930.73;1712482;83;21059;-77
2021/12/11 04:16:28;;;;;;;32.45;18.23;;;;;;;6.98;100.00;99929.03;1712546;83;21040;-74
2021/12/11 04:18:56;;;;;;;31.82;17.85;;;;;;;7.00;100.00;99929.86;1716534;82;21090;-78
2021/12/11 04:21:23;;;;;;;32.45;18.75;;;;;;;7.00;100.00;99924.63;1725304;83;21513;-77
2021/12/11 04:23:50;;;;;;;30.45;17.98;;;;;;;7.00;100.00;99920.23;1725008;83;21000;-76
2021/12/11 04:26:18;;;;;;;30.90;18.62;;;;;;;6.99;100.00;99930.73;1725041;83;21094;-78
2021/12/11 04:28:46;;;;;;;36.08;18.67;;;;;;;6.99;100.00;99919.81;1725179;83;21110;-76
2021/12/11 04:31:18;;;;;;;36.35;19.57;;;;;;;7.01;100.00;99921.09;1724964;83;21079;-77
2021/12/11 04:33:47;;;;;;;33.40;18.70;;;;;;;6.99;100.00;99925.50;1724995;82;21105;-76
2021/12/11 04:36:18;;;;;;;37.20;19.85;;;;;;;6.99;100.00;99909.80;1725038;83;21509;-76
2021/12/11 04:38:45;;;;;;;29.45;16.65;;;;;;;7.00;100.00;99914.15;1725437;82;21046;-75
2021/12/11 04:41:18;;;;;;;28.75;17.07;;;;;;;7.02;100.00;99913.66;1725213;83;21114;-84
2021/12/11 04:43:43;;;;;;;32.98;18.42;;;;;;;7.02;100.00;99912.35;1696328;83;21123;-88
2021/12/11 04:46:11;;;;;;;34.27;18.87;;;;;;;7.02;100.00;99917.13;1691435;84;21642;-74
2021/12/11 04:49:04;;;;;;;37.53;20.10;;;;;;;7.02;100.00;99930.22;1684148;84;21084;-73
2021/12/11 04:52:01;;;;;;;37.13;19.90;;;;;;;7.03;100.00;99920.60;1676533;85;21031;-71
2021/12/11 04:59:26;;;;;;;35.55;18.70;;;;;;;7.02;100.00;99925.45;1677367;85;21138;-67
2021/12/11 05:04:45;;;;;;;38.58;19.77;;;;;;;7.00;100.00;99911.53;1677759;85;21172;-67
2021/12/11 05:14:42;;;;;;;36.73;19.42;;;;;;;7.02;100.00;99912.35;1690747;84;21092;-68
2021/12/11 05:17:08;;;;;;;31.68;18.67;;;;;;;7.03;100.00;99898.34;1688793;84;21322;-68
2021/12/11 05:19:36;;;;;;;35.95;19.57;;;;;;;7.03;100.00;99903.59;1706209;82;21120;-67
2021/12/11 05:22:04;;;;;;;35.52;19.35;;;;;;;7.04;100.00;99902.67;1724189;83;21101;-66
2021/12/11 05:24:31;;;;;;;35.00;18.95;;;;;;;7.08;100.00;99917.41;1722203;83;21135;-67
2021/12/11 05:26:59;;;;;;;32.80;18.52;;;;;;;7.06;100.00;99914.85;1725827;83;21541;-71
2021/12/11 05:29:25;;;;;;;33.00;18.77;;;;;;;7.08;100.00;99917.41;1725659;83;21062;-69
2021/12/11 05:31:52;;;;;;;34.10;18.85;;;;;;;7.10;100.00;99902.52;1724507;83;21069;-66
2021/12/11 05:34:19;;;;;;;35.90;20.72;;;;;;;7.10;100.00;99903.83;1725310;83;21113;-67
2021/12/11 05:36:46;;;;;;;31.12;19.05;;;;;;;7.11;100.00;99909.49;1724834;83;21188;-67
2021/12/11 05:39:17;;;;;;;32.17;19.02;;;;;;;7.11;100.00;99912.97;1717271;81;21061;-66
2021/12/11 05:41:44;;;;;;;37.30;19.20;;;;;;;7.12;100.00;99926.91;1724312;83;21138;-67
2021/12/11 05:44:12;;;;;;;36.95;19.75;;;;;;;7.13;100.00;99914.21;1724310;82;21057;-68
2021/12/11 05:46:39;;;;;;;31.62;19.73;;;;;;;7.14;100.00;99917.26;1723809;83;21629;-67
2021/12/11 05:49:06;;;;;;;29.32;18.30;;;;;;;7.12;100.00;99927.77;1724235;83;21569;-66
2021/12/11 05:51:38;;;;;;;35.08;18.45;;;;;;;7.14;100.00;99940.83;1724769;83;21065;-68
2021/12/11 05:54:02;;;;;;;29.27;18.65;;;;;;;7.15;100.00;99918.96;1723795;81;21080;-66
2021/12/11 05:56:34;;;;;;;45.20;20.77;;;;;;;7.16;100.00;99929.87;1725507;82;21053;-66
2021/12/11 05:58:57;;;;;;;31.60;18.98;;;;;;;7.16;100.00;99918.54;1734432;81;21100;-67
2021/12/11 06:01:41;;;;;;;29.80;16.82;;;;;;;7.13;100.00;99904.63;1727545;82;21814;-68
2021/12/11 06:04:12;;;;;;;31.10;18.75;;;;;;;7.15;100.00;99922.89;1738561;81;21009;-67
2021/12/11 06:06:40;;;;;;;35.78;19.07;;;;;;;7.14;100.00;99914.64;1754694;81;21066;-68
2021/12/11 06:09:09;;;;;;;34.10;19.90;;;;;;;7.13;100.00;99929.92;1702094;83;21093;-68
2021/12/11 06:11:35;;;;;;;33.00;19.65;;;;;;;7.15;100.00;99924.20;1723038;83;21694;-67
2021/12/11 06:14:04;;;;;;;30.75;17.40;;;;;;;7.15;100.00;99928.12;1723477;83;21122;-67
2021/12/11 06:16:31;;;;;;;31.02;18.12;;;;;;;7.15;100.00;99918.96;1723299;83;21085;-68
2021/12/11 06:19:03;;;;;;;33.35;19.35;;;;;;;7.15;100.00;99925.51;1724700;83;21035;-68
2021/12/11 06:21:26;;;;;;;34.92;18.55;;;;;;;7.15;100.00;99921.58;1719184;83;21084;-67
2021/12/11 06:23:53;;;;;;;29.27;17.62;;;;;;;7.15;100.00;99929.44;1720012;83;21035;-67
2021/12/11 06:26:19;;;;;;;32.58;19.02;;;;;;;7.15;100.00;99938.60;1719627;83;21092;-67
2021/12/11 06:28:45;;;;;;;39.45;20.00;;;;;;;7.15;100.00;99934.67;1719877;83;21073;-68
2021/12/11 06:31:18;;;;;;;34.88;20.00;;;;;;;7.15;100.00;99924.20;1719994;83;21029;-67
2021/12/11 06:33:41;;;;;;;29.50;19.27;;;;;;;7.16;100.00;99924.63;1719683;83;21061;-67
2021/12/11 06:36:14;;;;;;;36.83;19.27;;;;;;;7.14;100.00;99919.88;1719778;83;21133;-68
2021/12/11 06:38:43;;;;;;;30.55;19.40;;;;;;;7.13;100.00;99926.00;1719986;83;21343;-69
2021/12/11 06:41:11;;;;;;;34.33;20.30;;;;;;;7.15;100.00;99929.44;1720020;83;21599;-70
2021/12/11 06:43:38;;;;;;;31.93;20.30;;;;;;;7.13;100.00;99920.34;1720013;83;21100;-69
2021/12/11 06:46:05;;;;;;;33.70;19.57;;;;;;;7.15;100.00;99928.12;1718587;82;21630;-68
2021/12/11 06:48:31;;;;;;;32.40;20.68;;;;;;;7.14;100.00;99944.75;1718422;83;21053;-69
2021/12/11 06:50:59;;;;;;;31.87;19.75;;;;;;;7.12;100.00;99930.38;1716867;82;21574;-68
2021/12/11 06:53:37;;;;;;;34.73;18.95;;;;;;;7.13;100.00;99939.09;1706647;83;21030;-67
2021/12/11 06:56:04;;;;;;;34.03;20.30;;;;;;;7.11;100.00;99948.77;1699959;83;21090;-67
2021/12/11 06:58:31;;;;;;;31.27;18.87;;;;;;;7.12;100.00;99924.29;1717113;83;21116;-67
2021/12/11 07:01:00;;;;;;;31.00;19.55;;;;;;;7.14;100.00;99930.35;1719576;83;21094;-69
2021/12/11 07:03:27;;;;;;;36.55;19.70;;;;;;;7.15;100.00;99926.81;1715756;82;22168;-68
2021/12/11 07:05:53;;;;;;;33.08;20.00;;;;;;;7.17;100.00;99922.41;1711571;83;21160;-69
2021/12/11 07:08:22;;;;;;;34.00;19.27;;;;;;;7.17;100.00;99923.72;1719659;83;21057;-70
2021/12/11 07:10:48;;;;;;;33.80;19.73;;;;;;;7.16;100.00;99909.37;1716147;82;21101;-69
2021/12/11 07:13:15;;;;;;;27.87;18.37;;;;;;;7.14;100.00;99924.66;1716725;83;21081;-69
2021/12/11 07:15:43;;;;;;;29.32;17.55;;;;;;;7.15;100.00;99918.96;1714862;83;21607;-67
2021/12/11 07:18:11;;;;;;;30.57;19.55;;;;;;;7.16;100.00;99923.32;1715634;83;21112;-66
2021/12/11 07:20:39;;;;;;;29.98;18.37;;;;;;;7.15;100.00;99930.75;1709585;82;21038;-68
2021/12/11 07:23:06;;;;;;;31.37;18.40;;;;;;;7.15;100.00;99934.67;1711607;82;21585;-68
2021/12/11 07:25:41;;;;;;;26.62;15.45;;;;;;;7.16;100.00;99929.87;1707909;82;22007;-67
2021/12/11 07:28:10;;;;;;;29.42;17.95;;;;;;;7.16;100.00;99928.55;1704110;82;21996;-67
2021/12/11 07:30:40;;;;;;;32.23;18.25;;;;;;;7.18;100.00;99929.38;1707098;83;21073;-69
2021/12/11 07:33:06;;;;;;;31.45;18.55;;;;;;;7.16;100.00;99928.55;1690704;82;21089;-68
2021/12/11 07:35:34;;;;;;;33.38;17.02;;;;;;;7.16;100.00;99928.55;1686138;83;21116;-67
2021/12/11 07:38:01;;;;;;;28.30;18.12;;;;;;;7.15;100.00;99926.81;1702723;82;21631;-68
2021/12/11 07:40:33;;;;;;;28.87;17.48;;;;;;;7.15;100.00;99934.67;1711311;82;21142;-69
2021/12/11 07:42:59;;;;;;;27.80;16.62;;;;;;;7.18;100.00;99946.83;1711548;82;21144;-69
2021/12/11 07:45:26;;;;;;;31.52;17.55;;;;;;;7.15;100.00;99942.53;1705087;83;21131;-69
2021/12/11 07:47:53;;;;;;;25.40;17.17;;;;;;;7.16;100.00;99941.66;1702613;83;21482;-68
2021/12/11 07:50:21;;;;;;;27.65;17.25;;;;;;;7.18;100.00;99933.31;1707346;83;21036;-68
2021/12/11 07:52:47;;;;;;;29.52;15.93;;;;;;;7.18;100.00;99940.28;1702552;83;21504;-68
2021/12/11 07:55:15;;;;;;;27.22;16.77;;;;;;;7.15;100.00;99954.31;1701941;84;21167;-68
2021/12/11 07:57:42;;;;;;;28.70;15.53;;;;;;;7.15;100.00;99945.15;1713131;82;21049;-68
2021/12/11 08:00:12;;;;;;;29.02;17.00;;;;;;;7.14;100.00;99933.83;1733725;82;21093;-69
2021/12/11 08:02:42;;;;;;;30.10;16.90;;;;;;;7.15;100.00;99941.22;1704667;83;21160;-68
2021/12/11 08:05:09;;;;;;;29.35;17.70;;;;;;;7.14;100.00;99927.28;1705201;83;22208;-69
2021/12/11 08:07:36;;;;;;;24.95;16.17;;;;;;;7.15;100.00;99926.81;1704045;84;21098;-69
2021/12/11 08:10:06;;;;;;;24.70;16.12;;;;;;;7.12;100.00;99930.84;1710955;83;21040;-68
2021/12/11 08:12:35;;;;;;;23.80;14.40;;;;;;;7.15;100.00;99932.05;1717851;83;21060;-68
2021/12/11 08:15:04;;;;;;;27.27;16.62;;;;;;;7.12;100.00;99957.03;1714957;83;21066;-71
2021/12/11 08:17:31;;;;;;;31.07;17.95;;;;;;;7.12;100.00;99945.24;1712230;83;21117;-70
2021/12/11 08:19:57;;;;;;;25.37;14.55;;;;;;;7.10;100.00;99932.17;1703645;83;21073;-68
2021/12/11 08:22:24;;;;;;;30.50;16.55;;;;;;;7.11;100.00;99940.92;1714561;82;21076;-70
2021/12/11 08:24:50;;;;;;;25.80;17.00;;;;;;;7.09;100.00;99947.95;1710266;83;22135;-69
2021/12/11 08:27:21;;;;;;;29.60;17.75;;;;;;;7.07;100.00;99936.66;1718884;83;21059;-69
2021/12/11 08:29:50;;;;;;;33.42;17.07;;;;;;;7.05;100.00;99931.44;1708270;83;21532;-70
2021/12/11 08:32:17;;;;;;;32.98;18.95;;;;;;;7.04;100.00;99949.80;1709617;83;21600;-69
2021/12/11 08:34:43;;;;;;;31.12;17.48;;;;;;;6.99;100.00;99925.50;1701629;82;21106;-71
2021/12/11 08:37:12;;;;;;;29.27;17.67;;;;;;;6.92;100.00;99940.50;1716321;82;20998;-68
2021/12/11 08:39:41;;;;;;;27.17;15.90;;;;;;;6.83;100.00;99931.14;1717139;82;21045;-70
2021/12/11 08:42:11;;;;;;;29.95;17.12;;;;;;;6.76;100.00;99929.55;1716948;82;21289;-69
2021/12/11 08:44:38;;;;;;;25.27;15.00;;;;;;;6.72;100.00;99931.40;1685466;83;21530;-68
2021/12/11 08:47:08;;;;;;;27.45;15.78;;;;;;;6.65;100.00;99931.59;1711957;83;21081;-69
2021/12/11 08:49:38;;;;;;;28.05;16.65;;;;;;;6.63;100.00;99926.84;1716478;82;28238;-70
2021/12/11 08:52:16;;;;;;;27.10;15.38;;;;;;;6.58;100.00;99934.80;1709592;83;21123;-70
2021/12/11 08:54:43;;;;;;;30.45;17.70;;;;;;;6.55;100.00;99927.46;1701346;83;21499;-70
2021/12/11 08:57:13;;;;;;;36.10;19.37;;;;;;;6.45;100.00;99917.21;1712487;83;21555;-70
2021/12/11 08:59:47;;;;;;;36.23;19.52;;;;;;;6.43;100.00;99926.85;1715459;83;21059;-70
2021/12/11 09:02:27;;;;;;;35.78;18.60;;;;;;;6.38;100.00;99928.72;1720433;82;21544;-70
2021/12/11 09:05:01;;;;;;;33.80;18.73;;;;;;;6.35;100.00;99915.72;1717309;81;21053;-70
2021/12/11 09:07:33;;;;;;;37.78;19.67;;;;;;;6.34;100.00;99920.52;1713218;83;21126;-69
2021/12/11 09:10:27;;;;;;;34.08;20.70;;;;;;;6.34;100.00;99915.75;1712339;82;21497;-70
2021/12/11 09:13:05;;;;;;;34.35;18.52;;;;;;;6.34;100.00;99920.98;1705070;83;21521;-69
2021/12/11 09:15:52;;;;;;;30.82;17.27;;;;;;;6.32;100.00;99923.62;1716660;82;21553;-69
2021/12/11 09:18:31;;;;;;;32.88;18.02;;;;;;;6.33;100.00;99931.89;1712571;82;21034;-69
2021/12/11 09:21:08;;;;;;;37.35;19.00;;;;;;;6.31;100.00;99907.53;1705712;82;21050;-68
2021/12/11 09:23:46;;;;;;;29.67;18.17;;;;;;;6.35;100.00;99917.03;1703692;83;21065;-68
2021/12/11 09:26:24;;;;;;;31.42;18.52;;;;;;;6.33;100.00;99917.51;1709326;83;21120;-69
2021/12/11 09:29:00;;;;;;;37.50;19.60;;;;;;;6.35;100.00;99916.14;1706642;82;21631;-69
2021/12/11 09:32:00;;;;;;;35.55;17.92;;;;;;;6.34;100.00;99929.67;1701367;82;21070;-69
2021/12/11 09:34:32;;;;;;;34.08;18.82;;;;;;;6.35;100.00;99920.95;1709131;83;22161;-69
2021/12/11 09:37:00;;;;;;;32.42;16.87;;;;;;;6.35;100.00;99909.19;1711846;82;21072;-70
2021/12/11 09:39:47;;;;;;;33.98;18.98;;;;;;;6.35;100.00;99927.49;1708323;83;21097;-69
2021/12/11 09:42:13;;;;;;;37.10;19.27;;;;;;;6.32;100.00;99926.23;1703605;83;21081;-70
2021/12/11 09:44:46;;;;;;;29.18;15.93;;;;;;;6.26;100.00;99926.39;1703728;83;21041;-71
2021/12/11 09:47:18;;;;;;;36.93;19.07;;;;;;;6.24;100.00;99933.41;1710062;83;21570;-69
2021/12/11 09:49:53;;;;;;;34.55;20.40;;;;;;;6.21;100.00;99924.30;1712149;83;21065;-70
2021/12/11 09:52:23;;;;;;;34.43;16.70;;;;;;;6.18;100.00;99931.77;1711832;82;21054;-70
2021/12/11 09:54:58;;;;;;;32.30;18.42;;;;;;;6.16;100.00;99926.17;1711579;82;21645;-68
2021/12/11 09:57:28;;;;;;;32.93;18.55;;;;;;;6.15;100.00;99941.45;1707536;83;21574;-69
2021/12/11 09:59:56;;;;;;;34.18;19.35;;;;;;;6.12;100.00;99932.36;1705886;83;21053;-69
2021/12/11 10:02:28;;;;;;;37.08;18.42;;;;;;;6.08;100.00;99921.97;1695605;83;21089;-70
2021/12/11 10:05:29;;;;;;;33.67;17.98;;;;;;;6.06;100.00;99931.60;1690609;83;21574;-70
2021/12/11 10:08:02;;;;;;;32.35;18.57;;;;;;;6.01;100.00;99911.24;1708377;82;21073;-68
2021/12/11 10:10:22;;;;;;;34.23;18.02;;;;;;;6.00;100.00;99918.66;1702370;82;21069;-69
2021/12/11 10:12:53;;;;;;;34.85;18.17;;;;;;;5.96;100.00;99925.28;1703425;83;21169;-69
2021/12/11 10:15:25;;;;;;;34.63;18.32;;;;;;;5.89;100.00;99919.33;1711156;83;21078;-70
2021/12/11 10:17:56;;;;;;;31.30;17.30;;;;;;;5.88;100.00;99921.50;1711288;83;21072;-70
2021/12/11 10:20:34;;;;;;;32.80;17.50;;;;;;;5.85;100.00;99912.44;1711336;83;21077;-70
2021/12/11 10:23:01;;;;;;;26.85;16.32;;;;;;;5.84;100.00;99914.61;1715767;83;21018;-68
2021/12/11 10:25:31;;;;;;;32.17;17.65;;;;;;;5.84;100.00;99922.45;1718191;83;21578;-69
2021/12/11 10:28:00;;;;;;;33.53;17.57;;;;;;;5.83;100.00;99925.52;1712828;83;21076;-69
2021/12/11 10:30:27;;;;;;;36.38;17.85;;;;;;;5.82;100.00;99918.59;1714566;83;21140;-69
2021/12/11 10:35:41;;;;;;;30.95;14.68;;;;;;;5.81;100.00;99925.14;1780887;79;28044;-70
2021/12/11 10:38:08;;;;;;;39.42;20.02;;;;;;;5.75;100.00;99933.09;1741421;81;21053;-69
2021/12/11 10:40:38;;;;;;;33.28;17.32;;;;;;;5.76;100.00;99920.47;1732016;81;21920;-71
2021/12/11 10:43:12;;;;;;;33.78;17.30;;;;;;;5.71;100.00;99932.77;1724449;82;21128;-71
2021/12/11 10:45:41;;;;;;;25.77;15.50;;;;;;;5.67;100.00;99932.81;1741033;81;21038;-69
2021/12/11 10:48:12;;;;;;;31.57;17.27;;;;;;;5.65;100.00;99925.45;1735007;82;21057;-70
2021/12/11 10:50:47;;;;;;;31.10;16.82;;;;;;;5.60;100.00;99923.38;1725852;82;27753;-67
2021/12/11 10:53:19;;;;;;;27.30;15.93;;;;;;;5.61;100.00;99920.31;1697488;83;21489;-70
2021/12/11 10:55:46;;;;;;;34.53;17.92;;;;;;;5.59;100.00;99911.22;1672906;85;21052;-69
2021/12/11 10:58:19;;;;;;;30.15;15.28;;;;;;;5.60;100.00;99923.38;1693303;84;21144;-70
2021/12/11 11:00:59;;;;;;;28.02;14.98;;;;;;;5.63;100.00;99932.45;1678381;84;21100;-70
2021/12/11 11:03:29;;;;;;;23.05;13.78;;;;;;;5.64;100.00;99932.89;1685949;85;21087;-70
2021/12/11 11:05:56;;;;;;;28.38;15.65;;;;;;;5.63;100.00;99933.76;1685360;85;21132;-70
2021/12/11 11:08:22;;;;;;;26.00;15.25;;;;;;;5.63;100.00;99944.20;1669865;85;21215;-70
2021/12/11 11:10:56;;;;;;;35.50;19.05;;;;;;;5.62;100.00;99941.20;1679555;85;21073;-69
2021/12/11 11:13:23;;;;;;;30.20;14.50;;;;;;;5.60;100.00;99936.44;1682725;85;21152;-70
2021/12/11 11:15:51;;;;;;;20.05;11.90;;;;;;;5.57;100.00;99941.73;1686590;84;21076;-69
2021/12/11 11:18:19;;;;;;;24.05;14.15;;;;;;;5.53;100.00;99936.16;1679085;84;21144;-70
2021/12/11 11:20:51;;;;;;;27.00;15.30;;;;;;;5.49;100.00;99941.02;1684494;84;21097;-68
2021/12/11 11:23:17;;;;;;;28.90;14.80;;;;;;;5.43;100.00;99935.47;1688594;83;21115;-69
2021/12/11 11:25:47;;;;;;;33.58;18.05;;;;;;;5.42;100.00;99940.72;1682060;84;21642;-69
2021/12/11 11:28:17;;;;;;;26.00;15.08;;;;;;;5.37;100.00;99929.50;1678784;84;21150;-69
2021/12/11 11:30:51;;;;;;;25.10;14.87;;;;;;;5.33;100.00;99936.52;1689899;84;21137;-70
2021/12/11 11:33:18;;;;;;;33.25;17.42;;;;;;;5.32;100.00;99933.51;1683740;84;21136;-70
2021/12/11 11:35:47;;;;;;;24.43;13.70;;;;;;;5.31;100.00;99950.05;1688458;83;21099;-69
2021/12/11 11:38:20;;;;;;;29.35;15.53;;;;;;;5.30;100.00;99935.28;1687633;83;21074;-70
2021/12/11 11:40:50;;;;;;;31.73;14.95;;;;;;;5.30;100.00;99937.89;1672214;84;21069;-68
2021/12/11 11:43:17;;;;;;;27.82;14.55;;;;;;;5.32;100.00;99935.27;1673661;85;21337;-69
2021/12/11 11:45:43;;;;;;;30.45;14.73;;;;;;;5.32;100.00;99945.71;1692919;83;21110;-70
2021/12/11 11:48:10;;;;;;;24.70;11.85;;;;;;;5.29;100.00;99943.13;1709316;83;21038;-81
2021/12/11 11:50:43;;;;;;;22.82;12.47;;;;;;;5.27;100.00;99951.02;1708896;83;21049;-85
2021/12/11 11:53:10;;;;;;;29.45;14.90;;;;;;;5.26;100.00;99952.74;1705250;83;21540;-82